createdAt,value
2019-03-05T00:02:19.506Z,75.19
2019-03-05T00:05:38.525Z,74.98
2019-03-05T00:08:47.504Z,74.92
2019-03-05T00:11:56.152Z,75.04
2019-03-05T00:15:05.038Z,74.51
2019-03-05T00:18:17.040Z,74.62
2019-03-05T00:21:25.506Z,75.09
2019-03-05T00:25:03.467Z,75.22
2019-03-05T00:28:37.333Z,75.11
2019-03-05T00:31:46.219Z,75.43
2019-03-05T00:35:41.085Z,75.54
2019-03-05T00:39:31.679Z,75.47
2019-03-05T00:43:29.973Z,75.48
2019-03-05T00:47:40.883Z,74.80
2019-03-05T00:51:39.993Z,74.76
2019-03-05T00:55:50.038Z,74.87
2019-03-05T01:00:38.067Z,74.48
2019-03-05T01:04:21.556Z,74.72
2019-03-05T01:07:40.622Z,74.78
2019-03-05T01:10:49.201Z,74.35
2019-03-05T01:13:57.939Z,74.46
2019-03-05T01:17:06.668Z,74.37
2019-03-05T01:20:15.473Z,74.19
2019-03-05T01:23:24.683Z,74.05
2019-03-05T01:26:33.455Z,74.31
2019-03-05T01:29:42.035Z,74.42
2019-03-05T01:32:54.944Z,74.25
2019-03-05T01:36:08.407Z,74.11
2019-03-05T01:39:35.109Z,74.10
2019-03-05T01:42:43.881Z,74.18
2019-03-05T01:45:53.959Z,74.47
2019-03-05T01:49:02.683Z,74.15
2019-03-05T01:52:11.260Z,74.17
2019-03-05T01:55:30.238Z,74.37
2019-03-05T01:58:39.022Z,74.41
2019-03-05T02:01:48.732Z,75.03
2019-03-05T02:04:57.339Z,81.80
2019-03-05T02:08:06.013Z,82.81
2019-03-05T02:11:24.762Z,85.34
2019-03-05T02:14:32.945Z,85.89
2019-03-05T02:17:43.183Z,86.69
2019-03-05T02:20:51.717Z,87.51
2019-03-05T02:24:55.372Z,88.54
2019-03-05T02:29:05.485Z,88.75
2019-03-05T02:32:58.972Z,88.41
2019-03-05T02:36:32.911Z,88.21
2019-03-05T02:40:51.773Z,88.73
2019-03-05T02:44:46.603Z,89.04
2019-03-05T02:48:41.411Z,88.92
2019-03-05T02:52:20.856Z,88.61
2019-03-05T02:56:26.832Z,88.61
2019-03-05T02:59:45.746Z,88.76
2019-03-05T03:03:00.965Z,87.93
2019-03-05T03:06:34.201Z,87.75
2019-03-05T03:10:29.200Z,87.42
2019-03-05T03:13:37.926Z,87.24
2019-03-05T03:16:46.736Z,87.71
2019-03-05T03:20:06.018Z,87.09
2019-03-05T03:23:24.783Z,86.75
2019-03-05T03:26:33.345Z,87.26
2019-03-05T03:29:42.039Z,86.77
2019-03-05T03:32:50.843Z,86.33
2019-03-05T03:35:59.637Z,85.56
2019-03-05T03:39:08.832Z,86.89
2019-03-05T03:42:17.418Z,85.71
2019-03-05T03:45:27.338Z,86.14
2019-03-05T03:48:35.947Z,86.54
2019-03-05T03:51:44.553Z,85.73
2019-03-05T03:55:03.426Z,86.02
2019-03-05T03:58:12.109Z,86.51
2019-03-05T04:01:20.737Z,86.82
2019-03-05T04:04:29.235Z,87.21
2019-03-05T04:07:38.282Z,87.15
2019-03-05T04:10:48.101Z,86.80
2019-03-05T04:13:59.478Z,86.68
2019-03-05T04:17:07.214Z,86.07
2019-03-05T04:20:32.775Z,85.88
2019-03-05T04:23:53.839Z,85.41
2019-03-05T04:27:02.638Z,84.53
2019-03-05T04:30:13.661Z,84.65
2019-03-05T04:33:21.945Z,84.00
2019-03-05T04:36:30.544Z,83.89
2019-03-05T04:39:39.264Z,82.87
2019-03-05T04:43:26.165Z,82.29
2019-03-05T04:46:42.324Z,82.11
2019-03-05T04:50:03.755Z,82.39
2019-03-05T04:53:12.394Z,82.34
2019-03-05T04:56:24.161Z,82.13
2019-03-05T04:59:33.205Z,82.13
2019-03-05T05:02:44.183Z,81.85
2019-03-05T05:05:54.149Z,82.00
2019-03-05T05:09:16.783Z,81.69
2019-03-05T05:12:36.912Z,81.75
2019-03-05T05:16:01.372Z,81.58
2019-03-05T05:19:08.954Z,81.85
2019-03-05T05:22:17.709Z,81.62
2019-03-05T05:25:29.293Z,82.15
2019-03-05T05:28:38.501Z,82.35
2019-03-05T05:31:51.323Z,82.76
2019-03-05T05:35:00.026Z,83.32
2019-03-05T05:38:10.279Z,83.50
2019-03-05T05:41:23.303Z,82.61
2019-03-05T05:44:35.111Z,82.49
2019-03-05T05:47:46.108Z,82.42
2019-03-05T05:50:54.093Z,82.67
2019-03-05T05:54:04.067Z,82.22
2019-03-05T05:57:13.516Z,82.76
2019-03-05T06:00:27.697Z,81.85
2019-03-05T06:03:37.976Z,81.72
2019-03-05T06:06:46.490Z,81.57
2019-03-05T06:09:55.486Z,81.37
2019-03-05T06:13:20.042Z,81.44
2019-03-05T06:16:33.847Z,80.83
2019-03-05T06:19:46.155Z,81.14
2019-03-05T06:22:55.251Z,80.94
2019-03-05T06:26:08.664Z,80.72
2019-03-05T06:29:17.414Z,80.81
2019-03-05T06:32:28.449Z,80.83
2019-03-05T06:35:37.472Z,80.24
2019-03-05T06:38:56.868Z,80.56
2019-03-05T06:42:16.280Z,80.59
2019-03-05T06:45:35.583Z,81.20
2019-03-05T06:48:55.171Z,81.33
2019-03-05T06:52:14.296Z,81.09
2019-03-05T06:55:33.923Z,80.55
2019-03-05T06:58:55.039Z,80.73
2019-03-05T07:02:03.584Z,79.85
2019-03-05T07:06:15.851Z,79.72
2019-03-05T07:10:21.092Z,79.15
2019-03-05T07:13:40.334Z,77.99
2019-03-05T07:17:01.445Z,77.80
2019-03-05T07:21:09.099Z,78.10
2019-03-05T07:24:47.784Z,77.55
2019-03-05T07:28:00.377Z,76.84
2019-03-05T07:31:08.843Z,76.51
2019-03-05T07:34:29.846Z,76.24
2019-03-05T07:37:54.108Z,76.46
2019-03-05T07:41:02.600Z,75.91
2019-03-05T07:44:11.137Z,75.79
2019-03-05T07:47:19.649Z,76.25
2019-03-05T07:50:28.122Z,75.37
2019-03-05T07:53:46.921Z,73.97
2019-03-05T07:56:55.406Z,70.69
2019-03-05T08:00:05.534Z,69.67
2019-03-05T08:03:14.157Z,66.54
2019-03-05T08:06:22.637Z,65.70
2019-03-05T08:09:41.566Z,64.45
2019-03-05T08:13:37.921Z,65.04
2019-03-05T08:16:46.450Z,65.25
2019-03-05T08:19:55.113Z,66.48
2019-03-05T08:23:03.559Z,65.73
2019-03-05T08:26:22.434Z,65.98
2019-03-05T08:29:30.959Z,66.07
2019-03-05T08:32:39.417Z,65.27
2019-03-05T08:35:47.912Z,64.63
2019-03-05T08:38:56.611Z,64.36
2019-03-05T08:42:15.448Z,62.90
2019-03-05T08:45:29.357Z,62.51
2019-03-05T08:48:34.623Z,62.61
2019-03-05T08:51:43.223Z,63.58
2019-03-05T08:54:51.877Z,64.35
2019-03-05T08:58:00.450Z,65.08
2019-03-05T09:01:09.663Z,66.24
2019-03-05T09:04:18.148Z,65.75
2019-03-05T09:07:26.730Z,65.75
2019-03-05T09:10:35.333Z,66.24
2019-03-05T09:13:43.879Z,66.57
2019-03-05T09:17:02.830Z,66.61
2019-03-05T09:20:14.055Z,66.90
2019-03-05T09:23:22.504Z,66.27
2019-03-05T09:26:50.727Z,66.18
2019-03-05T09:29:51.754Z,66.70
2019-03-05T09:33:00.325Z,66.64
2019-03-05T09:36:09.418Z,66.51
2019-03-05T09:39:18.165Z,67.08
2019-03-05T09:42:26.744Z,70.05
2019-03-05T09:45:36.805Z,70.37
2019-03-05T09:48:45.016Z,71.94
2019-03-05T09:52:04.009Z,72.88
2019-03-05T09:55:17.023Z,74.31
2019-03-05T09:58:25.601Z,74.43
2019-03-05T10:01:34.351Z,75.98
2019-03-05T10:04:42.925Z,76.07
2019-03-05T10:08:01.823Z,78.62
2019-03-05T10:11:10.395Z,80.19
2019-03-05T10:14:18.927Z,82.61
2019-03-05T10:17:37.689Z,83.53
2019-03-05T10:20:38.170Z,85.33
2019-03-05T10:23:47.977Z,85.56
2019-03-05T10:27:06.905Z,84.61
2019-03-05T10:30:25.146Z,84.90
2019-03-05T10:33:32.462Z,85.01
2019-03-05T10:36:41.007Z,84.71
2019-03-05T10:39:49.558Z,85.38
2019-03-05T10:43:07.992Z,84.54
2019-03-05T10:46:10.379Z,83.83
2019-03-05T10:49:19.137Z,83.56
2019-03-05T10:52:27.747Z,84.42
2019-03-05T10:55:36.620Z,84.44
2019-03-05T10:58:45.099Z,85.25
2019-03-05T11:01:53.800Z,85.00
2019-03-05T11:05:13.097Z,85.72
2019-03-05T11:08:32.468Z,83.89
2019-03-05T11:11:41.105Z,83.78
2019-03-05T11:14:49.561Z,84.73
2019-03-05T11:17:58.339Z,85.09
2019-03-05T11:21:07.620Z,85.24
2019-03-05T11:24:16.149Z,85.44
2019-03-05T11:27:24.702Z,86.47
2019-03-05T11:30:36.331Z,85.71
2019-03-05T11:33:45.312Z,85.50
2019-03-05T11:36:53.914Z,85.44
2019-03-05T11:40:02.567Z,85.76
2019-03-05T11:43:21.433Z,84.72
2019-03-05T11:46:30.055Z,84.57
2019-03-05T11:49:38.667Z,84.63
2019-03-05T11:52:47.269Z,84.32
2019-03-05T11:55:55.816Z,84.89
2019-03-05T11:59:04.483Z,83.26
2019-03-05T12:02:21.456Z,83.12
2019-03-05T12:05:23.393Z,83.90
2019-03-05T12:08:42.264Z,82.97
2019-03-05T12:11:50.728Z,82.14
2019-03-05T12:14:59.302Z,82.14
2019-03-05T12:18:09.292Z,82.29
2019-03-05T12:21:28.464Z,82.12
2019-03-05T12:24:47.498Z,80.89
2019-03-05T12:27:55.978Z,81.33
2019-03-05T12:31:04.710Z,80.81
2019-03-05T12:34:13.355Z,80.75
2019-03-05T12:37:21.820Z,81.39
2019-03-05T12:40:30.528Z,81.24
2019-03-05T12:43:39.125Z,82.24
2019-03-05T12:46:57.945Z,80.46
2019-03-05T12:50:09.550Z,79.86
2019-03-05T12:53:19.230Z,79.90
2019-03-05T12:56:38.136Z,79.68
2019-03-05T12:59:46.731Z,78.64
2019-03-05T13:02:55.716Z,77.95
2019-03-05T13:06:04.379Z,78.69
2019-03-05T13:09:20.122Z,78.11
2019-03-05T13:12:40.252Z,78.00
2019-03-05T13:15:49.040Z,76.51
2019-03-05T13:18:58.438Z,76.91
2019-03-05T13:22:07.152Z,75.72
2019-03-05T13:25:28.647Z,73.98
2019-03-05T13:28:40.122Z,73.94
2019-03-05T13:31:48.124Z,74.40
2019-03-05T13:34:56.719Z,74.95
2019-03-05T13:38:07.472Z,74.69
2019-03-05T13:41:16.783Z,75.19
2019-03-05T13:44:36.802Z,73.64
2019-03-05T13:47:53.683Z,74.25
2019-03-05T13:51:23.138Z,73.86
2019-03-05T13:55:01.122Z,73.83
2019-03-05T13:58:59.550Z,71.58
2019-03-05T14:02:09.829Z,70.09
2019-03-05T14:06:04.516Z,68.77
2019-03-05T14:09:14.700Z,68.04
2019-03-05T14:12:33.637Z,67.56
2019-03-05T14:15:43.855Z,68.04
2019-03-05T14:18:52.788Z,67.79
2019-03-05T14:22:01.605Z,69.21
2019-03-05T14:25:12.519Z,69.61
2019-03-05T14:28:31.422Z,69.98
2019-03-05T14:31:40.128Z,69.66
2019-03-05T14:35:22.278Z,70.11
2019-03-05T14:38:32.180Z,70.34
2019-03-05T14:41:40.878Z,70.71
2019-03-05T14:44:49.546Z,71.18
2019-03-05T14:48:08.709Z,70.67
2019-03-05T14:51:17.266Z,70.79
2019-03-05T14:54:26.981Z,70.28
2019-03-05T14:57:35.628Z,70.67
2019-03-05T15:00:44.431Z,70.82
2019-03-05T15:03:53.065Z,70.57
2019-03-05T15:07:04.564Z,70.88
2019-03-05T15:10:22.307Z,71.09
2019-03-05T15:13:30.994Z,71.10
2019-03-05T15:16:41.108Z,69.27
2019-03-05T15:19:49.753Z,68.18
2019-03-05T15:22:58.436Z,67.31
2019-03-05T15:26:07.051Z,67.10
2019-03-05T15:29:15.629Z,67.31
2019-03-05T15:32:34.477Z,67.81
2019-03-05T15:35:44.677Z,68.04
2019-03-05T15:39:04.860Z,68.39
2019-03-05T15:42:13.631Z,69.03
2019-03-05T15:45:22.337Z,69.79
2019-03-05T15:48:41.205Z,69.89
2019-03-05T15:51:49.825Z,69.80
2019-03-05T15:54:57.463Z,69.99
2019-03-05T15:58:16.571Z,70.62
2019-03-05T16:01:25.270Z,70.71
2019-03-05T16:04:44.698Z,70.19
2019-03-05T16:07:53.384Z,70.16
2019-03-05T16:11:01.877Z,70.60
2019-03-05T16:14:10.463Z,70.13
2019-03-05T16:17:19.072Z,68.07
2019-03-05T16:20:29.605Z,67.92
2019-03-05T16:23:48.066Z,67.95
2019-03-05T16:26:57.820Z,66.84
2019-03-05T16:30:09.708Z,65.63
2019-03-05T16:33:25.713Z,65.26
2019-03-05T16:36:56.254Z,65.54
2019-03-05T16:40:16.753Z,65.50
2019-03-05T16:43:40.560Z,66.22
2019-03-05T16:47:18.876Z,66.02
2019-03-05T16:50:52.209Z,66.43
2019-03-05T16:54:12.182Z,66.25
2019-03-05T16:57:33.050Z,66.57
2019-03-05T17:01:11.102Z,66.60
2019-03-05T17:04:26.595Z,66.37
2019-03-05T17:08:05.208Z,66.73
2019-03-05T17:11:31.267Z,66.71
2019-03-05T17:14:39.544Z,66.98
2019-03-05T17:17:48.230Z,67.18
2019-03-05T17:20:58.010Z,67.33
2019-03-05T17:24:16.974Z,67.79
2019-03-05T17:27:25.489Z,68.02
2019-03-05T17:30:34.468Z,67.83
2019-03-05T17:33:43.164Z,67.85
2019-03-05T17:36:51.990Z,68.35
2019-03-05T17:40:00.686Z,68.09
2019-03-05T17:43:09.562Z,68.22
2019-03-05T17:46:30.090Z,68.21
2019-03-05T17:49:40.265Z,68.55
2019-03-05T17:52:47.253Z,68.57
2019-03-05T17:55:55.947Z,68.82
2019-03-05T17:59:14.762Z,68.85
2019-03-05T18:02:23.379Z,68.57
2019-03-05T18:05:32.628Z,68.85
2019-03-05T18:08:52.211Z,69.02
2019-03-05T18:12:00.675Z,69.15
2019-03-05T18:15:15.081Z,69.55
2019-03-05T18:18:24.286Z,69.90
2019-03-05T18:21:32.870Z,70.12
2019-03-05T18:24:41.487Z,70.40
2019-03-05T18:27:50.425Z,70.97
2019-03-05T18:30:59.204Z,71.33
2019-03-05T18:34:07.981Z,71.97
2019-03-05T18:37:16.625Z,72.24
2019-03-05T18:40:26.034Z,72.44
2019-03-05T18:43:36.747Z,72.75
2019-03-05T18:46:55.921Z,73.00
2019-03-05T18:50:04.785Z,73.19
2019-03-05T18:53:13.659Z,73.54
2019-03-05T18:56:22.703Z,73.57
2019-03-05T18:59:31.717Z,73.69
2019-03-05T19:02:40.326Z,74.10
2019-03-05T19:05:59.275Z,74.45
2019-03-05T19:09:08.968Z,74.72
2019-03-05T19:12:17.474Z,75.28
2019-03-05T19:15:36.298Z,75.82
2019-03-05T19:18:44.979Z,76.25
2019-03-05T19:21:53.591Z,75.50
2019-03-05T19:25:02.169Z,75.67
2019-03-05T19:28:11.480Z,76.18
2019-03-05T19:31:20.250Z,75.74
2019-03-05T19:34:29.119Z,75.25
2019-03-05T19:37:37.757Z,74.56
2019-03-05T19:40:46.409Z,74.51
2019-03-05T19:43:54.993Z,74.46
2019-03-05T19:47:05.128Z,74.20
2019-03-05T19:50:17.450Z,74.38
2019-03-05T19:53:26.131Z,74.32
2019-03-05T19:56:34.939Z,74.39
2019-03-05T19:59:43.761Z,73.78
2019-03-05T20:02:52.483Z,73.36
2019-03-05T20:06:01.415Z,73.73
2019-03-05T20:09:13.688Z,73.57
2019-03-05T20:12:22.304Z,73.39
2019-03-05T20:15:30.866Z,73.46
2019-03-05T20:18:39.606Z,73.18
2019-03-05T20:21:48.634Z,73.10
2019-03-05T20:24:57.255Z,73.18
2019-03-05T20:28:06.053Z,73.64
2019-03-05T20:31:14.711Z,73.20
2019-03-05T20:34:23.478Z,73.01
2019-03-05T20:37:32.084Z,73.25
2019-03-05T20:40:50.809Z,73.24
2019-03-05T20:43:59.317Z,73.26
2019-03-05T20:47:08.100Z,73.29
2019-03-05T20:50:16.881Z,73.53
2019-03-05T20:53:25.665Z,73.48
2019-03-05T20:56:34.303Z,73.42
2019-03-05T20:59:42.796Z,73.14
2019-03-05T21:02:51.480Z,73.36
2019-03-05T21:06:10.425Z,73.54
2019-03-05T21:09:29.583Z,73.38
2019-03-05T21:12:38.057Z,73.30
2019-03-05T21:15:46.563Z,73.50
2019-03-05T21:18:55.116Z,73.48
2019-03-05T21:22:03.631Z,73.49
2019-03-05T21:25:22.568Z,73.65
2019-03-05T21:28:31.235Z,73.38
2019-03-05T21:31:39.737Z,73.45
2019-03-05T21:34:48.416Z,73.31
2019-03-05T21:37:58.617Z,73.46
2019-03-05T21:41:07.214Z,73.41
2019-03-05T21:44:15.859Z,73.34
2019-03-05T21:47:34.659Z,73.27
2019-03-05T21:50:43.258Z,73.12
2019-03-05T21:53:51.851Z,73.10
2019-03-05T21:57:00.539Z,73.39
2019-03-05T22:00:16.228Z,72.88
2019-03-05T22:03:24.782Z,72.80
2019-03-05T22:06:33.379Z,72.77
2019-03-05T22:09:42.291Z,73.12
2019-03-05T22:12:50.763Z,73.36
2019-03-05T22:16:00.109Z,72.81
2019-03-05T22:19:09.031Z,72.53
2019-03-05T22:22:17.552Z,72.53
2019-03-05T22:25:26.163Z,72.96
2019-03-05T22:28:34.699Z,73.11
2019-03-05T22:31:43.517Z,73.14
2019-03-05T22:34:52.165Z,73.33
2019-03-05T22:38:00.978Z,73.37
2019-03-05T22:41:09.634Z,73.54
2019-03-05T22:44:28.454Z,73.69
2019-03-05T22:47:36.983Z,73.51
2019-03-05T22:50:45.756Z,73.61
2019-03-05T22:53:54.356Z,73.62
2019-03-05T22:57:03.159Z,73.86
2019-03-05T23:00:32.014Z,73.85
2019-03-05T23:04:01.711Z,74.46
2019-03-05T23:07:10.928Z,74.35
2019-03-05T23:10:20.729Z,74.62
2019-03-05T23:13:29.975Z,74.66
2019-03-05T23:16:38.733Z,74.95
2019-03-05T23:19:49.172Z,74.91
2019-03-05T23:22:57.529Z,75.37
2019-03-05T23:26:06.328Z,75.42
2019-03-05T23:29:15.546Z,75.51
2019-03-05T23:32:24.633Z,75.58
2019-03-05T23:35:33.832Z,75.77
2019-03-05T23:38:52.550Z,75.48
2019-03-05T23:42:01.269Z,75.81
2019-03-05T23:45:11.651Z,76.43
2019-03-05T23:48:20.737Z,76.53
2019-03-05T23:51:29.303Z,76.56
2019-03-05T23:54:39.753Z,76.90
2019-03-05T23:57:48.054Z,77.16
